Sunday, December 16, 2018, 10:37 AM EST
Back to Local

KFVE, Northern Aroostook Regional

Location: Saint Agatha, ME, United States Lat: 47.283
Local Time: 10:37 AM EST (15:37 GMT) Lon: -68.3
Time Zone: US/Eastern Elev: 987 ft

Show me the last for .
Show Decoded

2018-12-16 09:53 METAR KFVE 161453Z AUTO 00000KT 10SM OVC014 M01/M06 A3018 RMK AO2 SLP230
                 T10061056 55007 TSNO =
2018-12-16 08:53 METAR KFVE 161353Z AUTO 01004KT 10SM OVC014 M01/M06 A3018 RMK AO2 SLP229
                 T10111061 TSNO =
2018-12-16 07:53 METAR KFVE 161253Z AUTO 03005KT 10SM OVC016 M01/M06 A3019 RMK AO2 SLP232
                 T10111061 TSNO =
2018-12-16 06:53 METAR KFVE 161153Z AUTO 35004KT 10SM OVC016 M01/M06 A3020 RMK AO2 SLP236
                 T10111061 11006 21028 53001 TSNO =
2018-12-16 05:53 METAR KFVE 161053Z AUTO 00000KT 10SM OVC017 M01/M06 A3020 RMK AO2 SLP236
                 T10111061 TSNO =
2018-12-16 04:53 METAR KFVE 160953Z AUTO 34006KT 10SM BKN016 M01/M06 A3019 RMK AO2 SLP231
                 T10111056 TSNO =
2018-12-16 03:53 METAR KFVE 160853Z AUTO 32007KT 10SM BKN017 M01/M06 A3020 RMK AO2 SLP235
                 T10111056 55003 TSNO =
2018-12-16 03:35 METAR KFVE 160835Z AUTO 33009G17KT 10SM BKN017 M01/M06 A3018 RMK AO2 T10111056
                 TSNO =
2018-12-16 03:06 METAR KFVE 160806Z AUTO 35005KT 10SM SCT019 M02/M06 A3018 RMK AO2 T10171056 TSNO
                 =
2018-12-16 02:53 METAR KFVE 160753Z AUTO 34009KT 10SM BKN020 M01/M06 A3018 RMK AO2 SLP230
                 T10111056 TSNO =
2018-12-16 01:53 METAR KFVE 160653Z AUTO 32005KT 10SM BKN021 M02/M06 A3021 RMK AO2 SLP239
                 T10171056 TSNO =
2018-12-16 00:53 METAR KFVE 160553Z AUTO 28009KT 10SM SCT022 M02/M05 A3021 RMK AO2 SLP238
                 T10221050 10017 21022 53013 TSNO =
2018-12-15 23:53 METAR KFVE 160453Z AUTO 30004KT 10SM CLR M01/M05 A3018 RMK AO2 SLP230 T10111050
                 400331011 TSNO =
2018-12-15 22:53 METAR KFVE 160353Z AUTO 26004KT 10SM CLR M01/M04 A3018 RMK AO2 SLP228 T10061044
                 TSNO =
2018-12-15 21:53 METAR KFVE 160253Z AUTO 29004KT 10SM CLR M01/M04 A3017 RMK AO2 SLP225 T10061044
                 53003 TSNO =
2018-12-15 20:53 METAR KFVE 160153Z AUTO 28008KT 10SM CLR 00/M05 A3016 RMK AO2 SLP222 T00001050
                 TSNO =
2018-12-15 19:53 METAR KFVE 160053Z AUTO 30009KT 10SM SCT040 02/M04 A3016 RMK AO2 SLP223
                 T00171044 TSNO =
2018-12-15 18:53 METAR KFVE 152353Z AUTO 30010KT 10SM OVC040 02/M04 A3016 RMK AO2 SLP222
                 T00171044 10033 20017 51023 TSNO =
2018-12-15 17:53 METAR KFVE 152253Z AUTO 31008KT 10SM OVC038 02/M05 A3013 RMK AO2 SLP214
                 T00221050 TSNO =
2018-12-15 16:53 METAR KFVE 152153Z AUTO 29011KT 10SM FEW033 OVC042 02/M04 A3012 RMK AO2 SLP207
                 T00221039 TSNO =
2018-12-15 15:53 METAR KFVE 152053Z AUTO 30010KT 10SM OVC044 02/M03 A3009 RMK AO2 SLP198
                 T00221033 53029 TSNO =
2018-12-15 14:53 METAR KFVE 151953Z AUTO 29011KT 10SM BKN030 OVC034 03/M03 A3005 RMK AO2 SLP185
                 T00281033 TSNO =
2018-12-15 14:25 METAR KFVE 151925Z AUTO 31009KT 10SM BKN030 BKN039 OVC048 03/M03 A3004 RMK AO2
                 T00331028 TSNO =
2018-12-15 13:53 METAR KFVE 151853Z AUTO 31011KT 10SM BKN029 OVC035 03/M03 A3002 RMK AO2 SLP176
                 T00281028 TSNO =
2018-12-15 13:23 METAR KFVE 151823Z AUTO 29014G19KT 10SM SCT022 BKN027 BKN034 03/M03 A3001 RMK
                 AO2 T00281028 TSNO =
2018-12-15 12:53 METAR KFVE 151753Z AUTO 27011KT 10SM FEW030 OVC042 03/M02 A3000 RMK AO2 SLP168
                 T00281022 10028 20011 53005 TSNO =
2018-12-15 11:53 METAR KFVE 151653Z AUTO 28011KT 10SM SCT032 OVC049 02/M02 A2999 RMK AO2 SLP163
                 T00221022 =
2018-12-15 10:53 METAR KFVE 151553Z AUTO 27008KT 10SM OVC048 02/M02 A2998 RMK AO2 SLP162
                 T00221017 =

Support USWX by starting your Amazon purchase here.